createdAt,value
2019-03-28T00:01:04.488Z,23.17
2019-03-28T00:03:33.387Z,20.03
2019-03-28T00:06:50.443Z,21.67
2019-03-28T00:09:19.487Z,22.13
2019-03-28T00:11:49.619Z,19.63
2019-03-28T00:14:54.596Z,22.40
2019-03-28T00:17:23.526Z,20.40
2019-03-28T00:19:52.416Z,23.20
2019-03-28T00:22:42.332Z,21.63
2019-03-28T00:25:15.842Z,25.13
2019-03-28T00:28:39.439Z,20.97
2019-03-28T00:31:08.376Z,20.53
2019-03-28T00:34:16.449Z,21.17
2019-03-28T00:36:47.039Z,22.43
2019-03-28T00:39:15.864Z,19.57
2019-03-28T00:42:23.975Z,18.87
2019-03-28T00:44:52.853Z,21.83
2019-03-28T00:47:47.139Z,20.27
2019-03-28T00:50:17.289Z,19.57
2019-03-28T00:52:47.740Z,23.03
2019-03-28T00:55:19.343Z,19.97
2019-03-28T00:57:48.304Z,25.37
2019-03-28T01:00:17.801Z,19.33
2019-03-28T01:02:52.923Z,21.57
2019-03-28T01:05:24.549Z,22.07
2019-03-28T01:08:45.031Z,17.93
2019-03-28T01:11:13.962Z,21.00
2019-03-28T01:13:43.294Z,21.23
2019-03-28T01:16:37.961Z,20.90
2019-03-28T01:19:09.702Z,21.27
2019-03-28T01:21:39.312Z,22.37
2019-03-28T01:24:08.171Z,21.40
2019-03-28T01:26:37.117Z,25.13
2019-03-28T01:29:33.008Z,24.10
2019-03-28T01:32:04.924Z,20.23
2019-03-28T01:34:33.888Z,19.27
2019-03-28T01:37:48.946Z,21.30
2019-03-28T01:40:17.888Z,18.53
2019-03-28T01:42:47.365Z,19.43
2019-03-28T01:45:16.324Z,21.40
2019-03-28T01:47:45.330Z,18.30
2019-03-28T01:50:50.739Z,21.57
2019-03-28T01:53:19.841Z,24.17
2019-03-28T01:55:48.778Z,22.97
2019-03-28T01:59:11.755Z,24.27
2019-03-28T02:01:40.680Z,20.10
2019-03-28T02:04:09.590Z,26.80
2019-03-28T02:06:45.645Z,21.03
2019-03-28T02:09:16.871Z,19.50
2019-03-28T02:11:45.852Z,22.23
2019-03-28T02:14:21.892Z,25.20
2019-03-28T02:16:50.945Z,23.30
2019-03-28T02:19:58.864Z,22.80
2019-03-28T02:22:27.859Z,21.87
2019-03-28T02:24:56.796Z,23.75
2019-03-28T02:27:52.567Z,24.17
2019-03-28T02:30:24.944Z,25.92
2019-03-28T02:32:54.064Z,21.05
2019-03-28T02:35:29.252Z,22.07
2019-03-28T02:37:58.386Z,21.95
2019-03-28T02:41:09.658Z,20.05
2019-03-28T02:43:38.613Z,23.75
2019-03-28T02:46:07.496Z,22.70
2019-03-28T02:49:00.445Z,22.87
2019-03-28T02:51:29.717Z,20.73
2019-03-28T02:53:58.763Z,24.90
2019-03-28T02:56:34.787Z,25.23
2019-03-28T02:59:04.766Z,24.70
2019-03-28T03:01:34.141Z,22.63
2019-03-28T03:04:03.101Z,22.20
2019-03-28T03:06:36.092Z,24.87
2019-03-28T03:09:07.970Z,23.77
2019-03-28T03:12:12.779Z,24.97
2019-03-28T03:14:41.663Z,25.97
2019-03-28T03:17:46.862Z,25.77
2019-03-28T03:20:16.010Z,22.90
2019-03-28T03:23:24.125Z,22.30
2019-03-28T03:25:53.061Z,23.23
2019-03-28T03:28:22.130Z,25.03
2019-03-28T03:30:51.064Z,24.77
2019-03-28T03:33:19.932Z,24.43
2019-03-28T03:35:48.863Z,25.83
2019-03-28T03:39:06.523Z,23.03
2019-03-28T03:41:35.576Z,23.37
2019-03-28T03:44:04.660Z,20.37
2019-03-28T03:47:27.637Z,27.47
2019-03-28T03:49:56.739Z,23.13
2019-03-28T03:52:26.842Z,27.43
2019-03-28T03:55:02.978Z,24.20
2019-03-28T03:57:34.677Z,22.47
2019-03-28T04:00:05.090Z,26.00
2019-03-28T04:02:40.149Z,28.40
2019-03-28T04:05:10.759Z,24.77
2019-03-28T04:07:46.886Z,25.47
2019-03-28T04:10:15.990Z,25.37
2019-03-28T04:13:21.047Z,26.33
2019-03-28T04:15:50.051Z,25.80
2019-03-28T04:18:22.152Z,23.20
2019-03-28T04:21:19.900Z,24.73
2019-03-28T04:23:48.777Z,24.43
2019-03-28T04:26:20.761Z,27.77
2019-03-28T04:28:56.957Z,27.10
2019-03-28T04:31:26.010Z,24.17
2019-03-28T04:34:13.159Z,24.23
2019-03-28T04:36:42.386Z,25.67
2019-03-28T04:39:11.223Z,27.83
2019-03-28T04:41:40.262Z,24.40
2019-03-28T04:44:09.236Z,25.63
2019-03-28T04:47:11.357Z,25.47
2019-03-28T04:49:40.251Z,25.37
2019-03-28T04:52:45.590Z,28.03
2019-03-28T04:55:15.034Z,20.97
2019-03-28T04:58:21.669Z,25.77
2019-03-28T05:00:50.646Z,25.20
2019-03-28T05:04:10.682Z,24.67
2019-03-28T05:06:39.733Z,27.13
2019-03-28T05:09:08.706Z,23.83
2019-03-28T05:11:37.684Z,27.57
2019-03-28T05:14:06.567Z,25.37
2019-03-28T05:16:35.516Z,28.50
2019-03-28T05:23:40.455Z,28.57
2019-03-28T05:26:12.396Z,26.30
2019-03-28T05:29:17.126Z,26.60
2019-03-28T05:31:50.465Z,27.17
2019-03-28T05:35:07.810Z,28.23
2019-03-28T05:37:36.790Z,24.83
2019-03-28T05:40:32.416Z,27.13
2019-03-28T05:43:04.467Z,28.97
2019-03-28T05:46:31.875Z,30.37
2019-03-28T05:49:05.090Z,29.93
2019-03-28T05:51:58.905Z,30.07
2019-03-28T05:54:28.121Z,32.90
2019-03-28T05:57:21.215Z,30.13
2019-03-28T05:59:50.162Z,33.27
2019-03-28T06:02:43.293Z,32.17
2019-03-28T06:05:15.437Z,31.50
2019-03-28T06:08:41.031Z,32.00
2019-03-28T06:11:10.042Z,30.40
2019-03-28T06:14:12.302Z,30.63
2019-03-28T06:16:47.621Z,26.67
2019-03-28T06:20:09.473Z,26.67
2019-03-28T06:22:39.541Z,28.17
2019-03-28T06:25:56.818Z,28.10
2019-03-28T06:28:25.777Z,24.17
2019-03-28T06:31:10.627Z,31.90
2019-03-28T06:33:39.991Z,29.67
2019-03-28T06:37:02.926Z,30.25
2019-03-28T06:39:36.590Z,31.70
2019-03-28T06:42:18.148Z,31.37
2019-03-28T06:44:47.575Z,32.57
2019-03-28T06:48:01.660Z,25.43
2019-03-28T06:50:30.601Z,37.30
2019-03-28T06:53:35.567Z,29.77
2019-03-28T06:56:04.610Z,30.90
2019-03-28T06:59:10.429Z,30.53
2019-03-28T07:01:39.566Z,31.23
2019-03-28T07:04:08.910Z,25.77
2019-03-28T07:06:42.319Z,30.53
2019-03-28T07:09:14.628Z,27.27
2019-03-28T07:11:44.277Z,28.23
2019-03-28T07:14:13.316Z,34.83
2019-03-28T07:16:42.547Z,29.93
2019-03-28T07:19:11.898Z,26.87
2019-03-28T07:21:45.761Z,28.90
2019-03-28T07:24:14.999Z,31.70
2019-03-28T07:26:46.769Z,31.77
2019-03-28T07:29:16.565Z,32.70
2019-03-28T07:31:50.183Z,33.43
2019-03-28T07:34:19.344Z,28.83
2019-03-28T07:36:52.141Z,31.80
2019-03-28T07:39:30.637Z,35.30
2019-03-28T07:42:09.108Z,30.03
2019-03-28T07:45:04.190Z,30.67
2019-03-28T07:47:26.768Z,32.93
2019-03-28T07:49:57.484Z,34.30
2019-03-28T07:52:28.821Z,31.97
2019-03-28T07:55:01.288Z,39.03
2019-03-28T07:57:32.611Z,30.67
2019-03-28T08:02:51.194Z,33.20
2019-03-28T08:05:29.206Z,32.10
2019-03-28T08:08:09.967Z,36.03
2019-03-28T08:10:56.643Z,32.73
2019-03-28T08:13:30.885Z,30.27
2019-03-28T08:16:13.784Z,30.40
2019-03-28T08:18:46.839Z,35.47
2019-03-28T08:21:25.835Z,34.53
2019-03-28T08:23:55.264Z,34.17
2019-03-28T08:26:30.285Z,41.18
2019-03-28T08:29:04.413Z,34.40
2019-03-28T08:31:42.386Z,32.73
2019-03-28T08:34:31.408Z,34.63
2019-03-28T08:37:12.977Z,38.53
2019-03-28T08:39:39.153Z,30.17
2019-03-28T08:45:08.902Z,33.33
2019-03-28T08:47:42.736Z,32.47
2019-03-28T08:50:12.485Z,33.23
2019-03-28T08:52:43.719Z,35.20
2019-03-28T08:55:18.740Z,35.70
2019-03-28T08:57:51.502Z,35.20
2019-03-28T09:00:33.037Z,34.23
2019-03-28T09:02:58.183Z,41.10
2019-03-28T09:05:28.593Z,39.80
2019-03-28T09:08:01.099Z,45.08
2019-03-28T09:10:34.849Z,38.33
2019-03-28T09:13:09.887Z,38.67
2019-03-28T09:15:45.543Z,38.50
2019-03-28T09:18:23.602Z,39.63
2019-03-28T09:20:53.894Z,41.40
2019-03-28T09:23:23.059Z,40.03
2019-03-28T09:25:52.198Z,42.63
2019-03-28T09:28:25.222Z,40.47
2019-03-28T09:30:55.984Z,40.43
2019-03-28T09:33:27.908Z,46.83
2019-03-28T09:35:57.362Z,42.70
2019-03-28T09:38:26.314Z,42.15
2019-03-28T09:40:56.820Z,36.87
2019-03-28T09:43:27.839Z,37.30
2019-03-28T09:46:00.548Z,32.97
2019-03-28T09:48:32.152Z,36.83
2019-03-28T09:51:01.897Z,27.07
2019-03-28T09:53:32.223Z,29.93
2019-03-28T09:56:01.258Z,31.97
2019-03-28T09:58:34.031Z,32.00
2019-03-28T10:01:03.686Z,29.60
2019-03-28T10:03:33.869Z,33.63
2019-03-28T10:06:03.669Z,32.40
2019-03-28T10:08:38.736Z,30.37
2019-03-28T10:11:10.553Z,35.55
2019-03-28T10:13:43.656Z,30.87
2019-03-28T10:16:15.626Z,29.80
2019-03-28T10:18:48.060Z,31.53
2019-03-28T10:21:20.866Z,31.47
2019-03-28T10:23:51.006Z,25.03
2019-03-28T10:26:30.714Z,27.60
2019-03-28T10:29:00.038Z,27.80
2019-03-28T10:31:31.063Z,26.70
2019-03-28T10:34:00.746Z,23.83
2019-03-28T10:36:31.766Z,28.37
2019-03-28T10:39:05.692Z,25.43
2019-03-28T10:41:39.866Z,26.17
2019-03-28T10:44:10.619Z,23.63
2019-03-28T10:46:39.783Z,28.73
2019-03-28T10:49:08.833Z,28.27
2019-03-28T10:51:39.361Z,27.70
2019-03-28T10:54:19.444Z,30.10
2019-03-28T10:56:51.122Z,32.83
2019-03-28T10:59:22.764Z,31.65
2019-03-28T11:01:50.504Z,31.43
2019-03-28T11:04:18.951Z,31.63
2019-03-28T11:06:51.008Z,35.43
2019-03-28T11:09:20.877Z,31.97
2019-03-28T11:11:53.066Z,37.28
2019-03-28T11:14:29.665Z,36.00
2019-03-28T11:17:00.347Z,33.53
2019-03-28T11:19:29.727Z,37.10
2019-03-28T11:22:01.353Z,34.80
2019-03-28T11:24:31.572Z,31.20
2019-03-28T11:27:04.966Z,31.37
2019-03-28T11:29:34.896Z,25.83
2019-03-28T11:32:07.532Z,29.10
2019-03-28T11:34:36.734Z,28.03
2019-03-28T11:37:14.951Z,27.50
2019-03-28T11:39:41.742Z,28.90
2019-03-28T11:42:11.923Z,26.30
2019-03-28T11:44:46.470Z,26.87
2019-03-28T11:47:23.893Z,24.20
2019-03-28T11:49:54.231Z,22.10
2019-03-28T11:52:24.714Z,23.30
2019-03-28T11:54:58.088Z,22.10
2019-03-28T11:57:30.710Z,18.37
2019-03-28T12:00:00.792Z,18.90
2019-03-28T12:06:13.409Z,17.53
2019-03-28T12:08:44.938Z,18.47
2019-03-28T12:11:14.562Z,21.73
2019-03-28T12:13:45.237Z,22.53
2019-03-28T12:16:17.334Z,22.33
2019-03-28T12:19:27.025Z,16.17
2019-03-28T12:21:58.314Z,18.83
2019-03-28T12:25:35.094Z,17.80
2019-03-28T12:27:07.169Z,24.20
2019-03-28T12:29:36.882Z,19.97
2019-03-28T12:32:13.951Z,21.13
2019-03-28T12:34:40.664Z,17.83
2019-03-28T12:37:42.692Z,18.97
2019-03-28T12:40:13.539Z,19.47
2019-03-28T12:43:11.702Z,17.80
2019-03-28T12:45:46.358Z,20.17
2019-03-28T12:48:44.957Z,18.43
2019-03-28T12:51:14.382Z,18.97
2019-03-28T12:53:50.442Z,16.63
2019-03-28T12:56:21.460Z,17.80
2019-03-28T12:58:56.258Z,19.27
2019-03-28T13:01:30.228Z,20.30
2019-03-28T13:03:59.078Z,19.60
2019-03-28T13:07:19.950Z,19.53
2019-03-28T13:09:59.171Z,20.37
2019-03-28T13:12:37.806Z,18.83
2019-03-28T13:15:08.497Z,18.50
2019-03-28T13:18:19.728Z,17.30
2019-03-28T13:20:50.569Z,19.43
2019-03-28T13:23:48.464Z,15.57
2019-03-28T13:26:23.204Z,22.93
2019-03-28T13:29:34.607Z,21.80
2019-03-28T13:32:10.752Z,20.87
2019-03-28T13:34:59.609Z,23.37
2019-03-28T13:37:28.538Z,19.97
2019-03-28T13:40:01.855Z,23.87
2019-03-28T13:42:31.240Z,22.77
2019-03-28T13:45:00.992Z,21.53
2019-03-28T13:48:17.996Z,23.17
2019-03-28T13:50:47.178Z,21.23
2019-03-28T13:53:52.087Z,22.53
2019-03-28T13:56:20.991Z,21.80
2019-03-28T13:59:46.257Z,21.03
2019-03-28T14:02:15.213Z,20.53
2019-03-28T14:05:17.519Z,23.83
2019-03-28T14:07:50.213Z,21.00
2019-03-28T14:11:09.641Z,24.27
2019-03-28T14:13:43.919Z,24.30
2019-03-28T14:17:19.695Z,22.87
2019-03-28T14:19:44.645Z,22.70
2019-03-28T14:22:19.271Z,26.30
2019-03-28T14:24:55.886Z,24.53
2019-03-28T14:27:54.863Z,23.00
2019-03-28T14:30:23.838Z,28.47
2019-03-28T14:32:53.939Z,25.47
2019-03-28T14:35:23.170Z,25.80
2019-03-28T14:37:52.386Z,24.77
2019-03-28T14:40:58.126Z,25.30
2019-03-28T14:43:29.207Z,26.03
2019-03-28T14:46:31.286Z,32.60
2019-03-28T14:49:00.329Z,27.03
2019-03-28T14:51:55.003Z,26.77
2019-03-28T14:54:24.265Z,24.23
2019-03-28T14:57:19.382Z,31.53
2019-03-28T14:59:51.550Z,34.00
2019-03-28T15:02:56.784Z,34.00
2019-03-28T15:05:32.855Z,33.67
2019-03-28T15:08:49.073Z,35.37
2019-03-28T15:11:19.305Z,32.87
2019-03-28T15:14:27.083Z,33.93
2019-03-28T15:17:02.212Z,31.97
2019-03-28T15:20:13.705Z,35.43
2019-03-28T15:22:42.930Z,31.67
2019-03-28T15:25:51.694Z,33.33
2019-03-28T15:28:24.895Z,28.73
2019-03-28T15:31:48.098Z,31.17
2019-03-28T15:34:18.617Z,32.58
2019-03-28T15:37:02.003Z,30.93
2019-03-28T15:39:33.471Z,29.67
2019-03-28T15:42:51.286Z,29.13
2019-03-28T15:45:20.370Z,26.77
2019-03-28T15:47:52.017Z,32.80
2019-03-28T15:50:25.161Z,25.73
2019-03-28T15:54:39.070Z,29.13
2019-03-28T15:55:34.872Z,27.70
2019-03-28T15:58:05.302Z,26.80
2019-03-28T16:01:22.809Z,31.87
2019-03-28T16:04:10.391Z,31.77
2019-03-28T16:07:13.398Z,35.23
2019-03-28T16:09:46.650Z,31.60
2019-03-28T16:12:51.552Z,34.47
2019-03-28T16:15:30.315Z,30.97
2019-03-28T16:18:33.756Z,28.23
2019-03-28T16:21:16.536Z,32.00
2019-03-28T16:23:49.084Z,30.43
2019-03-28T16:26:19.836Z,32.83
2019-03-28T16:28:58.858Z,33.10
2019-03-28T16:32:05.384Z,35.30
2019-03-28T16:34:36.086Z,34.70
2019-03-28T16:37:42.619Z,35.40
2019-03-28T16:40:14.763Z,34.63
2019-03-28T16:43:35.581Z,36.53
2019-03-28T16:46:07.731Z,38.97
2019-03-28T16:49:13.178Z,39.00
2019-03-28T16:51:45.761Z,35.93
2019-03-28T16:54:50.955Z,42.60
2019-03-28T16:57:22.927Z,33.70
2019-03-28T17:00:34.836Z,36.98
2019-03-28T17:03:03.944Z,35.53
2019-03-28T17:06:24.646Z,33.10
2019-03-28T17:08:58.475Z,34.63
2019-03-28T17:12:05.206Z,41.53
2019-03-28T17:14:34.565Z,35.70
2019-03-28T17:17:40.835Z,34.97
2019-03-28T17:20:12.535Z,37.07
2019-03-28T17:23:30.382Z,39.60
2019-03-28T17:26:03.824Z,39.20
2019-03-28T17:29:09.071Z,34.37
2019-03-28T17:31:38.059Z,42.60
2019-03-28T17:34:38.406Z,38.77
2019-03-28T17:37:07.305Z,38.10
2019-03-28T17:39:41.735Z,37.57
2019-03-28T17:42:14.149Z,39.13
2019-03-28T17:45:37.330Z,40.00
2019-03-28T17:48:12.659Z,38.40
2019-03-28T17:51:24.557Z,40.30
2019-03-28T17:53:56.089Z,39.37
2019-03-28T17:57:06.640Z,35.50
2019-03-28T17:59:39.824Z,39.47
2019-03-28T18:02:32.788Z,38.57
2019-03-28T18:05:09.555Z,38.40
2019-03-28T18:08:10.138Z,42.67
2019-03-28T18:10:50.541Z,40.50
2019-03-28T18:13:41.444Z,40.77
2019-03-28T18:16:13.110Z,39.47
2019-03-28T18:19:18.354Z,38.50
2019-03-28T18:22:03.772Z,42.00
2019-03-28T18:24:57.777Z,43.87
2019-03-28T18:27:26.847Z,39.83
2019-03-28T18:30:24.162Z,44.53
2019-03-28T18:32:53.774Z,37.47
2019-03-28T18:35:57.495Z,43.87
2019-03-28T18:38:30.799Z,47.03
2019-03-28T18:41:48.257Z,41.97
2019-03-28T18:44:17.290Z,40.27
2019-03-28T18:47:20.450Z,43.60
2019-03-28T18:49:49.271Z,39.00
2019-03-28T18:53:09.366Z,39.07
2019-03-28T18:55:42.427Z,41.63
2019-03-28T18:59:02.033Z,42.10
2019-03-28T19:01:31.014Z,38.67
2019-03-28T19:15:36.924Z,39.87
2019-03-28T19:18:06.551Z,40.50
2019-03-28T19:20:37.837Z,42.20
2019-03-28T19:23:07.706Z,43.00
2019-03-28T19:25:37.026Z,40.50
2019-03-28T19:28:07.734Z,43.53
2019-03-28T19:30:49.526Z,43.10
2019-03-28T19:33:21.662Z,47.10
2019-03-28T19:36:29.566Z,38.43
2019-03-28T19:38:58.115Z,41.57
2019-03-28T19:41:59.234Z,38.37
2019-03-28T19:44:30.089Z,50.77
2019-03-28T19:47:48.927Z,46.20
2019-03-28T19:50:20.808Z,48.53
2019-03-28T19:52:49.732Z,50.13
2019-03-28T19:55:23.652Z,50.47
2019-03-28T19:57:52.641Z,41.00
2019-03-28T20:01:13.109Z,40.30
2019-03-28T20:03:41.992Z,43.67
2019-03-28T20:07:06.048Z,43.00
2019-03-28T20:09:35.073Z,47.20
2019-03-28T20:12:37.044Z,50.13
2019-03-28T20:15:10.527Z,43.80
2019-03-28T20:17:39.554Z,41.10
2019-03-28T20:20:08.882Z,41.90
2019-03-28T20:22:38.798Z,42.83
2019-03-28T20:25:17.229Z,46.47
2019-03-28T20:27:49.733Z,41.90
2019-03-28T20:30:19.710Z,43.80
2019-03-28T20:32:50.157Z,46.03
2019-03-28T20:35:25.790Z,44.03
2019-03-28T20:38:42.661Z,43.20
2019-03-28T20:41:18.470Z,41.43
2019-03-28T20:44:22.522Z,33.97
2019-03-28T20:46:53.457Z,40.10
2019-03-28T20:50:15.008Z,40.07
2019-03-28T20:52:53.003Z,40.97
2019-03-28T20:56:01.398Z,39.43
2019-03-28T20:58:36.403Z,40.97
2019-03-28T21:01:07.114Z,39.30
2019-03-28T21:03:36.333Z,39.80
2019-03-28T21:06:27.743Z,40.27
2019-03-28T21:08:56.792Z,40.23
2019-03-28T21:11:59.904Z,43.70
2019-03-28T21:14:30.952Z,37.97
2019-03-28T21:17:00.117Z,35.80
2019-03-28T21:23:52.350Z,36.37
2019-03-28T21:26:24.259Z,37.93
2019-03-28T21:28:53.201Z,31.77
2019-03-28T21:32:20.945Z,37.40
2019-03-28T21:34:56.255Z,35.87
2019-03-28T21:38:04.239Z,35.57
2019-03-28T21:40:34.687Z,37.33
2019-03-28T21:43:57.499Z,35.37
2019-03-28T21:46:26.400Z,40.40
2019-03-28T21:49:43.269Z,35.87
2019-03-28T21:52:12.502Z,38.83
2019-03-28T21:55:02.716Z,40.73
2019-03-28T21:57:38.190Z,37.13
2019-03-28T22:00:50.388Z,42.00
2019-03-28T22:03:19.362Z,41.37
2019-03-28T22:08:19.106Z,40.23
2019-03-28T22:10:47.998Z,37.73
2019-03-28T22:13:52.822Z,38.33
2019-03-28T22:16:21.731Z,37.00
2019-03-28T22:18:50.659Z,42.47
2019-03-28T22:22:11.648Z,41.97
2019-03-28T22:24:40.574Z,46.87
2019-03-28T22:27:11.320Z,39.77
2019-03-28T22:29:40.247Z,39.93
2019-03-28T22:32:16.199Z,37.37
2019-03-28T22:34:52.878Z,37.13
2019-03-28T22:37:21.872Z,41.47
2019-03-28T22:40:30.307Z,35.20
2019-03-28T22:43:00.272Z,40.83
2019-03-28T22:45:29.351Z,43.73
2019-03-28T22:48:36.064Z,38.73
2019-03-28T22:51:05.022Z,42.13
2019-03-28T22:54:13.086Z,36.33
2019-03-28T22:56:41.953Z,41.10
2019-03-28T22:59:10.978Z,35.53
2019-03-28T23:01:40.162Z,45.70
2019-03-28T23:04:10.095Z,36.13
2019-03-28T23:07:17.812Z,38.73
2019-03-28T23:09:46.963Z,37.83
2019-03-28T23:12:20.159Z,31.53
2019-03-28T23:15:29.085Z,39.07
2019-03-28T23:18:03.802Z,37.63
2019-03-28T23:20:37.250Z,38.00
2019-03-28T23:23:13.247Z,42.50
2019-03-28T23:25:42.162Z,40.57
2019-03-28T23:28:48.363Z,36.63
2019-03-28T23:31:17.268Z,35.57
2019-03-28T23:33:46.242Z,38.00
2019-03-28T23:37:06.590Z,39.53
2019-03-28T23:39:35.590Z,36.43
2019-03-28T23:42:31.427Z,34.17
2019-03-28T23:45:00.441Z,41.60
2019-03-28T23:47:32.331Z,37.37
2019-03-28T23:50:01.252Z,37.73
2019-03-28T23:52:30.156Z,37.23
2019-03-28T23:55:47.625Z,35.57
2019-03-28T23:58:18.503Z,32.77
